createdAt,value
2022-12-07T00:02:38.457Z,16.55
2022-12-07T00:06:46.102Z,17.37
2022-12-07T00:10:48.015Z,16.20
2022-12-07T00:14:50.996Z,16.98
2022-12-07T00:18:53.419Z,17.08
2022-12-07T00:22:55.359Z,17.12
2022-12-07T00:26:57.514Z,16.70
2022-12-07T00:31:05.514Z,16.73
2022-12-07T00:35:07.790Z,15.88
2022-12-07T00:39:09.951Z,17.45
2022-12-07T00:43:11.851Z,17.37
2022-12-07T00:47:13.637Z,16.58
2022-12-07T00:51:17.292Z,16.20
2022-12-07T00:55:18.960Z,16.20
2022-12-07T00:59:20.598Z,16.10
2022-12-07T01:03:22.256Z,16.23
2022-12-07T01:07:24.016Z,16.12
2022-12-07T01:11:28.835Z,17.27
2022-12-07T01:15:30.414Z,17.40
2022-12-07T01:19:32.050Z,19.02
2022-12-07T01:23:35.235Z,18.98
2022-12-07T01:27:37.517Z,17.83
2022-12-07T01:31:39.191Z,18.52
2022-12-07T01:35:40.826Z,19.48
2022-12-07T01:39:42.872Z,18.42
2022-12-07T01:44:20.685Z,18.60
2022-12-07T01:48:27.147Z,18.33
2022-12-07T01:52:32.739Z,18.65
2022-12-07T01:56:34.739Z,18.67
2022-12-07T02:00:36.533Z,19.20
2022-12-07T02:04:38.302Z,16.92
2022-12-07T02:08:40.936Z,18.27
2022-12-07T02:12:45.823Z,19.02
2022-12-07T02:16:54.984Z,18.98
2022-12-07T02:21:22.513Z,18.80
2022-12-07T02:25:39.171Z,18.10
2022-12-07T02:29:40.723Z,18.73
2022-12-07T02:33:47.802Z,18.80
2022-12-07T02:37:59.843Z,18.98
2022-12-07T02:42:14.716Z,18.90
2022-12-07T02:46:22.084Z,20.60
2022-12-07T02:50:23.932Z,18.20
2022-12-07T02:54:25.697Z,18.08
2022-12-07T02:58:40.855Z,18.33
2022-12-07T03:03:04.371Z,17.17
2022-12-07T03:07:15.026Z,17.27
2022-12-07T03:11:31.150Z,18.08
2022-12-07T03:15:58.483Z,18.85
2022-12-07T03:20:05.429Z,18.35
2022-12-07T03:28:14.623Z,18.33
2022-12-07T03:32:31.987Z,19.85
2022-12-07T03:36:46.271Z,19.30
2022-12-07T03:40:59.824Z,19.60
2022-12-07T03:45:04.640Z,19.55
2022-12-07T03:49:30.655Z,18.30
2022-12-07T03:53:49.688Z,20.40
2022-12-07T03:57:55.770Z,18.90
2022-12-07T04:02:02.714Z,19.90
2022-12-07T04:06:04.685Z,17.20
2022-12-07T04:10:07.163Z,18.17
2022-12-07T04:14:20.972Z,16.30
2022-12-07T04:18:22.599Z,16.40
2022-12-07T04:22:24.248Z,17.20
2022-12-07T04:26:26.062Z,17.95
2022-12-07T04:30:27.707Z,17.30
2022-12-07T04:34:29.451Z,17.98
2022-12-07T04:38:31.138Z,17.52
2022-12-07T04:42:32.808Z,17.95
2022-12-07T04:46:34.655Z,17.48
2022-12-07T04:50:43.144Z,17.20
2022-12-07T04:54:47.603Z,16.62
2022-12-07T04:58:50.194Z,16.40
2022-12-07T05:02:51.832Z,17.30
2022-12-07T05:06:53.455Z,17.37
2022-12-07T05:10:55.147Z,16.55
2022-12-07T05:14:56.771Z,18.00
2022-12-07T05:18:58.781Z,17.45
2022-12-07T05:23:00.611Z,17.42
2022-12-07T05:27:02.411Z,16.52
2022-12-07T05:31:04.195Z,16.17
2022-12-07T05:35:06.247Z,16.85
2022-12-07T05:39:08.393Z,16.20
2022-12-07T05:43:10.186Z,14.73
2022-12-07T05:47:12.892Z,14.98
2022-12-07T05:51:14.534Z,13.73
2022-12-07T05:55:16.472Z,14.13
2022-12-07T05:59:23.970Z,13.90
2022-12-07T06:03:25.681Z,15.95
2022-12-07T06:07:27.370Z,13.50
2022-12-07T06:11:47.863Z,13.18
2022-12-07T06:15:49.492Z,12.90
2022-12-07T06:19:51.715Z,12.93
2022-12-07T06:23:53.725Z,13.20
2022-12-07T06:27:56.242Z,13.48
2022-12-07T06:31:58.277Z,12.48
2022-12-07T06:35:59.935Z,12.50
2022-12-07T06:40:01.864Z,11.10
2022-12-07T06:44:04.707Z,11.40
2022-12-07T06:48:06.451Z,10.43
2022-12-07T06:52:08.210Z,11.02
2022-12-07T06:56:09.847Z,11.40
2022-12-07T07:00:15.690Z,11.38
2022-12-07T07:04:21.654Z,12.40
2022-12-07T07:08:24.151Z,11.55
2022-12-07T07:12:26.036Z,11.68
2022-12-07T07:16:27.690Z,13.15
2022-12-07T07:20:29.470Z,12.90
2022-12-07T07:24:31.370Z,12.95
2022-12-07T07:28:32.981Z,12.35
2022-12-07T07:32:35.236Z,12.37
2022-12-07T07:36:36.902Z,12.45
2022-12-07T07:40:38.633Z,11.88
2022-12-07T07:44:40.281Z,13.18
2022-12-07T07:48:41.882Z,13.20
2022-12-07T07:52:44.155Z,13.38
2022-12-07T07:56:45.783Z,12.82
2022-12-07T08:00:47.467Z,13.50
2022-12-07T08:04:49.323Z,13.75
2022-12-07T08:08:50.961Z,13.40
2022-12-07T08:13:11.484Z,13.82
2022-12-07T08:17:13.418Z,12.20
2022-12-07T08:21:16.349Z,11.27
2022-12-07T08:25:18.285Z,11.82
2022-12-07T08:29:20.588Z,11.05
2022-12-07T08:33:23.912Z,9.52
2022-12-07T08:37:25.546Z,9.90
2022-12-07T08:41:27.173Z,8.85
2022-12-07T08:45:28.894Z,9.82
2022-12-07T08:49:44.392Z,9.52
2022-12-07T08:53:46.730Z,9.55
2022-12-07T08:57:48.669Z,9.45
2022-12-07T09:01:50.354Z,9.18
2022-12-07T09:05:53.662Z,8.18
2022-12-07T09:09:55.390Z,8.13
2022-12-07T09:13:57.374Z,7.70
2022-12-07T09:17:59.079Z,7.90
2022-12-07T09:22:00.776Z,7.93
2022-12-07T09:26:10.484Z,7.40
2022-12-07T09:30:13.148Z,6.93
2022-12-07T09:34:14.846Z,6.78
2022-12-07T09:38:17.510Z,7.40
2022-12-07T09:42:37.522Z,7.40
2022-12-07T09:46:42.863Z,7.18
2022-12-07T09:50:44.706Z,6.03
2022-12-07T09:54:49.636Z,6.20
2022-12-07T09:59:00.447Z,5.85
2022-12-07T10:03:03.310Z,5.87
2022-12-07T10:07:04.952Z,5.18
2022-12-07T10:11:11.337Z,5.18
2022-12-07T10:15:14.308Z,4.70
2022-12-07T10:19:45.336Z,4.62
2022-12-07T10:24:11.097Z,5.12
2022-12-07T10:28:16.645Z,5.70
2022-12-07T10:32:18.220Z,6.30
2022-12-07T10:36:37.064Z,5.93
2022-12-07T10:40:40.851Z,6.95
2022-12-07T10:44:47.401Z,7.72
2022-12-07T10:48:58.564Z,8.18
2022-12-07T10:53:35.682Z,6.68
2022-12-07T10:58:08.779Z,6.20
2022-12-07T11:02:37.762Z,6.07
2022-12-07T11:07:05.905Z,4.62
2022-12-07T11:11:34.425Z,4.10
2022-12-07T11:16:01.404Z,4.45
2022-12-07T11:20:21.100Z,4.07
2022-12-07T11:24:45.384Z,3.37
2022-12-07T11:29:22.334Z,3.50
2022-12-07T11:33:32.596Z,3.10
2022-12-07T11:41:43.844Z,4.22
2022-12-07T11:45:53.355Z,3.35
2022-12-07T11:50:04.062Z,4.12
2022-12-07T11:54:30.938Z,3.55
2022-12-07T11:59:01.506Z,3.22
2022-12-07T12:03:12.359Z,2.83
2022-12-07T12:16:44.193Z,2.58
2022-12-07T12:20:57.264Z,2.75
2022-12-07T12:24:59.244Z,2.85
2022-12-07T12:29:05.139Z,2.25
2022-12-07T12:33:32.679Z,2.80
2022-12-07T12:37:34.278Z,3.12
2022-12-07T12:42:01.874Z,3.00
2022-12-07T12:46:58.222Z,2.67
2022-12-07T12:51:37.996Z,2.90
2022-12-07T12:55:42.377Z,2.30
2022-12-07T13:00:00.883Z,2.10
2022-12-07T13:04:03.806Z,2.60
2022-12-07T13:08:28.004Z,1.70
2022-12-07T13:12:33.007Z,1.65
2022-12-07T13:16:39.208Z,1.23
2022-12-07T13:20:46.769Z,1.63
2022-12-07T13:24:48.442Z,1.90
2022-12-07T13:29:20.936Z,2.62
2022-12-07T13:33:22.684Z,2.20
2022-12-07T13:37:33.657Z,1.77
2022-12-07T13:41:43.502Z,2.12
2022-12-07T13:45:51.285Z,2.00
2022-12-07T13:49:55.775Z,2.15
2022-12-07T13:54:09.861Z,2.67
2022-12-07T13:58:11.664Z,2.83
2022-12-07T14:02:34.418Z,2.17
2022-12-07T14:06:37.164Z,2.00
2022-12-07T14:10:59.873Z,1.90
2022-12-07T14:15:03.427Z,1.85
2022-12-07T14:19:26.289Z,1.58
2022-12-07T14:23:28.647Z,1.73
2022-12-07T14:27:37.447Z,2.03
2022-12-07T14:31:39.091Z,1.60
2022-12-07T14:35:41.379Z,1.92
2022-12-07T14:39:42.976Z,1.55
2022-12-07T14:44:00.161Z,2.47
2022-12-07T14:56:52.722Z,2.20
2022-12-07T15:00:54.334Z,1.65
2022-12-07T15:04:56.103Z,2.55
2022-12-07T15:08:57.778Z,2.00
2022-12-07T15:13:20.808Z,2.47
2022-12-07T15:17:31.458Z,2.92
2022-12-07T15:21:33.805Z,2.97
2022-12-07T15:25:35.448Z,3.05
2022-12-07T15:29:37.061Z,3.10
2022-12-07T15:33:39.772Z,3.03
2022-12-07T15:37:41.514Z,5.32
2022-12-07T15:41:43.195Z,6.20
2022-12-07T15:45:44.803Z,3.70
2022-12-07T15:49:46.499Z,3.28
2022-12-07T15:53:48.133Z,2.87
2022-12-07T15:57:50.289Z,3.20
2022-12-07T16:01:52.120Z,3.95
2022-12-07T16:05:54.137Z,3.92
2022-12-07T16:09:55.986Z,3.40
2022-12-07T16:13:57.643Z,2.90
2022-12-07T16:17:59.323Z,3.50
2022-12-07T16:22:01.158Z,3.37
2022-12-07T16:26:08.085Z,3.08
2022-12-07T16:30:10.103Z,3.53
2022-12-07T16:34:11.742Z,3.47
2022-12-07T16:38:13.314Z,3.62
2022-12-07T16:42:14.918Z,3.00
2022-12-07T16:46:16.737Z,2.92
2022-12-07T16:50:18.546Z,3.40
2022-12-07T16:54:20.133Z,4.20
2022-12-07T16:58:21.774Z,3.95
2022-12-07T17:02:23.432Z,4.32
2022-12-07T17:06:28.357Z,3.87
2022-12-07T17:10:30.047Z,4.45
2022-12-07T17:14:50.271Z,5.50
2022-12-07T17:18:51.948Z,4.93
2022-12-07T17:22:54.385Z,5.43
2022-12-07T17:26:56.039Z,6.20
2022-12-07T17:30:57.732Z,5.68
2022-12-07T17:35:00.792Z,6.35
2022-12-07T17:39:06.990Z,7.68
2022-12-07T17:43:09.226Z,5.70
2022-12-07T17:47:11.155Z,6.45
2022-12-07T17:51:31.488Z,7.05
2022-12-07T17:55:54.528Z,6.55
2022-12-07T17:59:55.413Z,7.20
2022-12-07T18:03:57.033Z,7.37
2022-12-07T18:07:58.961Z,7.07
2022-12-07T18:12:00.891Z,7.70
2022-12-07T18:16:11.510Z,7.85
2022-12-07T18:20:13.507Z,7.32
2022-12-07T18:24:17.422Z,7.62
2022-12-07T18:28:20.657Z,7.00
2022-12-07T18:32:22.645Z,7.68
2022-12-07T18:36:24.388Z,7.55
2022-12-07T18:40:27.255Z,6.70
2022-12-07T18:44:28.991Z,5.57
2022-12-07T18:48:30.607Z,6.03
2022-12-07T18:52:32.282Z,6.90
2022-12-07T18:56:34.147Z,7.05
2022-12-07T19:00:36.055Z,8.63
2022-12-07T19:04:37.767Z,9.15
2022-12-07T19:08:39.359Z,10.98
2022-12-07T19:12:41.543Z,11.48
2022-12-07T19:16:45.359Z,11.23
2022-12-07T19:20:47.095Z,11.00
2022-12-07T19:24:50.944Z,11.68
2022-12-07T19:28:52.596Z,15.07
2022-12-07T19:32:54.334Z,12.13
2022-12-07T19:36:55.988Z,11.63
2022-12-07T19:41:06.299Z,13.18
2022-12-07T19:45:08.143Z,13.70
2022-12-07T19:49:09.915Z,12.82
2022-12-07T19:53:11.574Z,12.25
2022-12-07T19:57:16.247Z,13.18
2022-12-07T20:01:18.075Z,12.88
2022-12-07T20:05:21.841Z,12.68
2022-12-07T20:09:24.175Z,13.52
2022-12-07T20:13:28.777Z,14.18
2022-12-07T20:17:30.443Z,13.80
2022-12-07T20:21:32.314Z,15.20
2022-12-07T20:25:36.496Z,15.52
2022-12-07T20:29:38.154Z,15.98
2022-12-07T20:33:40.617Z,15.45
2022-12-07T20:37:42.242Z,15.35
2022-12-07T20:42:02.558Z,15.98
2022-12-07T20:46:04.262Z,16.40
2022-12-07T20:50:06.689Z,17.17
2022-12-07T20:54:08.518Z,16.83
2022-12-07T20:58:10.511Z,15.52
2022-12-07T21:02:13.612Z,15.82
2022-12-07T21:06:17.327Z,15.20
2022-12-07T21:10:19.148Z,15.90
2022-12-07T21:14:21.828Z,15.52
2022-12-07T21:18:23.474Z,15.90
2022-12-07T21:22:25.143Z,14.70
2022-12-07T21:26:27.924Z,15.82
2022-12-07T21:30:40.512Z,15.02
2022-12-07T21:34:51.278Z,13.95
2022-12-07T21:38:53.315Z,13.98
2022-12-07T21:42:54.961Z,15.50
2022-12-07T21:46:56.741Z,16.08
2022-12-07T21:51:09.560Z,14.63
2022-12-07T21:55:11.288Z,14.48
2022-12-07T21:59:15.614Z,14.90
2022-12-07T22:03:17.523Z,14.43
2022-12-07T22:07:19.240Z,13.93
2022-12-07T22:11:20.907Z,15.30
2022-12-07T22:15:23.086Z,14.73
2022-12-07T22:19:25.742Z,13.85
2022-12-07T22:23:27.387Z,13.70
2022-12-07T22:27:29.140Z,15.20
2022-12-07T22:31:30.839Z,14.35
2022-12-07T22:35:32.551Z,14.18
2022-12-07T22:39:34.233Z,15.32
2022-12-07T22:43:35.940Z,14.57
2022-12-07T22:47:39.159Z,14.65
2022-12-07T22:51:41.792Z,15.35
2022-12-07T22:55:43.455Z,15.48
2022-12-07T22:59:45.146Z,15.07
2022-12-07T23:03:47.358Z,15.65
2022-12-07T23:07:49.122Z,15.82
2022-12-07T23:12:09.670Z,15.82
2022-12-07T23:16:15.293Z,14.90
2022-12-07T23:20:17.429Z,17.70
2022-12-07T23:24:19.175Z,15.77
2022-12-07T23:28:20.906Z,17.15
2022-12-07T23:32:22.548Z,16.70
2022-12-07T23:36:26.673Z,17.12
2022-12-07T23:40:28.425Z,16.12
2022-12-07T23:44:30.055Z,16.92
2022-12-07T23:48:31.674Z,17.92
2022-12-07T23:52:33.270Z,17.48
2022-12-07T23:56:35.216Z,17.70
